createdAt,value
2019-05-21T00:00:35.516Z,4.40
2019-05-21T00:01:40.687Z,4.28
2019-05-21T00:02:45.532Z,4.40
2019-05-21T00:03:50.975Z,4.08
2019-05-21T00:04:55.709Z,4.30
2019-05-21T00:06:00.962Z,4.53
2019-05-21T00:07:05.893Z,4.40
2019-05-21T00:08:11.298Z,4.30
2019-05-21T00:09:16.280Z,4.10
2019-05-21T00:10:21.703Z,4.42
2019-05-21T00:11:26.405Z,4.30
2019-05-21T00:12:31.782Z,4.42
2019-05-21T00:13:36.655Z,4.50
2019-05-21T00:14:41.868Z,4.03
2019-05-21T00:15:46.811Z,4.03
2019-05-21T00:16:52.004Z,4.10
2019-05-21T00:17:56.806Z,4.45
2019-05-21T00:19:02.342Z,4.55
2019-05-21T00:20:07.295Z,4.70
2019-05-21T00:21:12.702Z,4.15
2019-05-21T00:22:17.449Z,4.10
2019-05-21T00:23:22.943Z,4.30
2019-05-21T00:24:27.903Z,4.17
2019-05-21T00:25:33.108Z,4.35
2019-05-21T00:26:37.979Z,4.12
2019-05-21T00:27:43.262Z,4.10
2019-05-21T00:29:24.052Z,4.10
2019-05-21T00:31:04.713Z,4.28
2019-05-21T00:32:45.274Z,4.20
2019-05-21T00:34:26.224Z,4.15
2019-05-21T00:36:06.697Z,4.35
2019-05-21T00:37:47.667Z,4.35
2019-05-21T00:39:28.623Z,4.30
2019-05-21T00:41:09.292Z,4.60
2019-05-21T00:42:20.562Z,4.45
2019-05-21T00:43:31.721Z,4.30
2019-05-21T00:44:41.691Z,4.25
2019-05-21T00:45:46.410Z,4.15
2019-05-21T00:46:51.509Z,4.72
2019-05-21T00:47:56.434Z,4.08
2019-05-21T00:49:01.776Z,4.42
2019-05-21T00:50:07.064Z,4.50
2019-05-21T00:51:12.528Z,4.20
2019-05-21T00:52:17.388Z,4.50
2019-05-21T00:53:22.846Z,4.25
2019-05-21T00:54:27.446Z,4.12
2019-05-21T00:55:32.812Z,4.50
2019-05-21T00:56:37.398Z,4.42
2019-05-21T00:57:42.690Z,4.10
2019-05-21T00:58:47.510Z,4.42
2019-05-21T00:59:52.838Z,4.87
2019-05-21T01:00:57.647Z,4.65
2019-05-21T01:02:03.021Z,4.05
2019-05-21T01:03:07.846Z,4.72
2019-05-21T01:04:13.288Z,4.33
2019-05-21T01:05:18.090Z,4.58
2019-05-21T01:06:23.514Z,4.45
2019-05-21T01:07:28.223Z,4.45
2019-05-21T01:08:33.402Z,3.83
2019-05-21T01:09:38.198Z,4.42
2019-05-21T01:10:43.518Z,4.35
2019-05-21T01:11:48.358Z,4.33
2019-05-21T01:12:53.718Z,4.28
2019-05-21T01:13:58.633Z,4.25
2019-05-21T01:15:04.051Z,4.20
2019-05-21T01:16:08.937Z,4.60
2019-05-21T01:17:14.277Z,4.70
2019-05-21T01:18:19.122Z,4.72
2019-05-21T01:19:24.526Z,4.40
2019-05-21T01:20:29.384Z,4.35
2019-05-21T01:21:34.893Z,4.22
2019-05-21T01:22:39.731Z,4.22
2019-05-21T01:23:45.034Z,4.37
2019-05-21T01:24:49.883Z,4.42
2019-05-21T01:25:55.308Z,4.25
2019-05-21T01:27:00.066Z,4.12
2019-05-21T01:28:05.545Z,4.55
2019-05-21T01:29:10.401Z,4.40
2019-05-21T01:30:15.727Z,4.72
2019-05-21T01:31:20.599Z,4.50
2019-05-21T01:32:26.043Z,4.30
2019-05-21T01:33:30.843Z,4.30
2019-05-21T01:34:36.369Z,4.37
2019-05-21T01:35:41.168Z,4.25
2019-05-21T01:36:46.487Z,4.28
2019-05-21T01:37:51.201Z,4.40
2019-05-21T01:38:56.480Z,4.60
2019-05-21T01:40:01.273Z,4.53
2019-05-21T01:41:06.630Z,4.35
2019-05-21T01:42:11.529Z,4.55
2019-05-21T01:43:16.906Z,4.30
2019-05-21T01:44:21.760Z,4.30
2019-05-21T01:45:27.043Z,4.30
2019-05-21T01:46:31.946Z,4.05
2019-05-21T01:47:37.381Z,3.95
2019-05-21T01:48:42.204Z,3.83
2019-05-21T01:49:47.686Z,4.00
2019-05-21T01:50:52.464Z,4.55
2019-05-21T01:51:57.828Z,4.22
2019-05-21T01:53:03.208Z,4.20
2019-05-21T01:54:08.616Z,3.98
2019-05-21T01:55:13.585Z,4.08
2019-05-21T01:56:19.164Z,4.25
2019-05-21T01:57:23.969Z,4.33
2019-05-21T01:58:29.465Z,4.22
2019-05-21T01:59:34.389Z,4.20
2019-05-21T02:00:39.851Z,4.28
2019-05-21T02:01:44.720Z,4.37
2019-05-21T02:02:50.120Z,4.10
2019-05-21T02:03:55.007Z,4.12
2019-05-21T02:05:00.297Z,3.92
2019-05-21T02:06:05.138Z,4.22
2019-05-21T02:07:10.677Z,4.05
2019-05-21T02:08:15.504Z,4.10
2019-05-21T02:09:20.931Z,3.75
2019-05-21T02:10:25.926Z,4.12
2019-05-21T02:11:31.258Z,3.90
2019-05-21T02:12:36.197Z,4.22
2019-05-21T02:13:41.586Z,3.92
2019-05-21T02:14:46.490Z,4.00
2019-05-21T02:15:51.891Z,4.15
2019-05-21T02:16:56.918Z,4.00
2019-05-21T02:18:02.133Z,3.85
2019-05-21T02:19:06.974Z,3.85
2019-05-21T02:20:12.461Z,3.75
2019-05-21T02:21:17.118Z,4.20
2019-05-21T02:22:22.430Z,3.77
2019-05-21T02:23:27.183Z,3.83
2019-05-21T02:24:32.587Z,4.03
2019-05-21T02:25:37.473Z,4.35
2019-05-21T02:26:43.022Z,4.20
2019-05-21T02:27:47.895Z,4.05
2019-05-21T02:28:53.263Z,3.77
2019-05-21T02:29:58.047Z,4.05
2019-05-21T02:31:03.444Z,4.10
2019-05-21T02:32:08.271Z,3.90
2019-05-21T02:33:13.695Z,4.08
2019-05-21T02:34:18.389Z,3.90
2019-05-21T02:35:23.587Z,3.65
2019-05-21T02:36:28.474Z,4.12
2019-05-21T02:37:33.783Z,4.20
2019-05-21T02:38:38.490Z,3.60
2019-05-21T02:39:43.826Z,3.90
2019-05-21T02:40:48.806Z,4.05
2019-05-21T02:41:54.215Z,3.70
2019-05-21T02:42:58.993Z,3.83
2019-05-21T02:44:04.394Z,3.52
2019-05-21T02:45:09.526Z,3.90
2019-05-21T02:46:14.923Z,4.00
2019-05-21T02:47:19.748Z,3.72
2019-05-21T02:48:25.081Z,4.05
2019-05-21T02:49:29.857Z,4.08
2019-05-21T02:50:35.146Z,3.72
2019-05-21T02:51:39.890Z,3.77
2019-05-21T02:52:45.235Z,3.90
2019-05-21T02:53:50.071Z,3.77
2019-05-21T02:54:55.499Z,4.00
2019-05-21T02:56:00.105Z,3.90
2019-05-21T02:57:05.482Z,3.85
2019-05-21T02:58:10.293Z,3.90
2019-05-21T02:59:15.664Z,3.77
2019-05-21T03:00:42.473Z,3.90
2019-05-21T03:01:53.341Z,3.60
2019-05-21T03:02:58.877Z,4.00
2019-05-21T03:04:03.801Z,3.70
2019-05-21T03:05:09.806Z,3.90
2019-05-21T03:06:15.122Z,3.67
2019-05-21T03:07:20.831Z,3.87
2019-05-21T03:08:25.864Z,3.75
2019-05-21T03:09:31.198Z,3.65
2019-05-21T03:10:36.029Z,3.72
2019-05-21T03:11:41.493Z,4.10
2019-05-21T03:12:46.277Z,3.80
2019-05-21T03:13:51.715Z,3.60
2019-05-21T03:14:56.389Z,3.90
2019-05-21T03:16:01.804Z,3.52
2019-05-21T03:17:06.631Z,3.67
2019-05-21T03:18:11.828Z,3.90
2019-05-21T03:19:16.893Z,3.95
2019-05-21T03:20:22.355Z,3.62
2019-05-21T03:21:27.506Z,3.65
2019-05-21T03:22:32.879Z,3.67
2019-05-21T03:23:37.937Z,3.90
2019-05-21T03:24:43.372Z,3.40
2019-05-21T03:25:48.215Z,4.03
2019-05-21T03:26:53.730Z,3.80
2019-05-21T03:27:58.479Z,4.35
2019-05-21T03:29:03.855Z,4.50
2019-05-21T03:30:08.904Z,4.72
2019-05-21T03:31:14.160Z,4.60
2019-05-21T03:32:19.040Z,4.10
2019-05-21T03:33:24.487Z,4.40
2019-05-21T03:34:29.156Z,3.90
2019-05-21T03:35:34.524Z,4.10
2019-05-21T03:36:39.268Z,3.90
2019-05-21T03:37:44.672Z,4.12
2019-05-21T03:38:49.530Z,3.77
2019-05-21T03:39:54.861Z,3.90
2019-05-21T03:40:59.592Z,4.03
2019-05-21T03:42:05.109Z,4.40
2019-05-21T03:43:10.059Z,3.87
2019-05-21T03:44:15.389Z,4.40
2019-05-21T03:45:20.244Z,3.95
2019-05-21T03:46:25.647Z,4.50
2019-05-21T03:47:30.473Z,3.92
2019-05-21T03:48:35.941Z,3.90
2019-05-21T03:49:40.880Z,4.12
2019-05-21T03:50:46.541Z,4.10
2019-05-21T03:51:51.284Z,3.90
2019-05-21T03:52:56.666Z,4.42
2019-05-21T03:54:01.449Z,4.10
2019-05-21T03:55:06.689Z,4.40
2019-05-21T03:56:11.565Z,4.62
2019-05-21T03:57:16.915Z,4.30
2019-05-21T03:58:22.198Z,4.78
2019-05-21T03:59:27.963Z,5.15
2019-05-21T04:00:33.364Z,4.80
2019-05-21T04:01:38.815Z,4.20
2019-05-21T04:02:43.533Z,4.70
2019-05-21T04:03:49.011Z,4.72
2019-05-21T04:04:54.112Z,4.60
2019-05-21T04:06:02.724Z,4.42
2019-05-21T04:07:07.565Z,4.80
2019-05-21T04:08:12.980Z,4.50
2019-05-21T04:09:17.749Z,4.67
2019-05-21T04:10:23.270Z,4.40
2019-05-21T04:11:28.081Z,4.47
2019-05-21T04:12:33.455Z,4.53
2019-05-21T04:13:38.379Z,4.60
2019-05-21T04:14:47.801Z,4.90
2019-05-21T04:16:02.251Z,4.90
2019-05-21T04:17:34.797Z,4.72
2019-05-21T04:18:55.659Z,4.15
2019-05-21T04:20:01.039Z,4.72
2019-05-21T04:21:05.759Z,4.75
2019-05-21T04:22:16.607Z,4.65
2019-05-21T04:23:21.261Z,4.50
2019-05-21T04:24:26.615Z,4.45
2019-05-21T04:25:31.645Z,4.58
2019-05-21T04:26:37.073Z,4.28
2019-05-21T04:27:41.719Z,4.55
2019-05-21T04:28:46.725Z,4.17
2019-05-21T04:29:51.541Z,4.37
2019-05-21T04:30:56.963Z,4.33
2019-05-21T04:32:01.820Z,4.17
2019-05-21T04:33:07.076Z,4.78
2019-05-21T04:34:11.920Z,4.20
2019-05-21T04:35:17.355Z,3.90
2019-05-21T04:36:22.167Z,4.17
2019-05-21T04:37:27.633Z,4.83
2019-05-21T04:38:32.602Z,4.20
2019-05-21T04:39:37.863Z,4.17
2019-05-21T04:40:42.764Z,4.55
2019-05-21T04:41:48.118Z,3.98
2019-05-21T04:42:52.961Z,4.40
2019-05-21T04:43:58.411Z,4.35
2019-05-21T04:45:03.116Z,4.22
2019-05-21T04:46:08.553Z,4.03
2019-05-21T04:47:13.293Z,3.87
2019-05-21T04:48:18.734Z,4.10
2019-05-21T04:49:23.365Z,4.15
2019-05-21T04:50:28.826Z,4.30
2019-05-21T04:51:33.593Z,3.95
2019-05-21T04:52:39.049Z,4.20
2019-05-21T04:53:43.809Z,4.37
2019-05-21T04:54:49.225Z,3.90
2019-05-21T04:55:54.119Z,4.55
2019-05-21T04:56:59.424Z,4.22
2019-05-21T04:58:05.278Z,4.40
2019-05-21T04:59:10.763Z,3.80
2019-05-21T05:00:15.723Z,3.80
2019-05-21T05:01:20.979Z,4.30
2019-05-21T05:02:26.139Z,4.00
2019-05-21T05:03:31.540Z,4.10
2019-05-21T05:04:36.350Z,4.10
2019-05-21T05:05:41.782Z,3.85
2019-05-21T05:06:46.458Z,4.12
2019-05-21T05:07:52.018Z,3.90
2019-05-21T05:08:56.895Z,3.90
2019-05-21T05:10:02.368Z,4.20
2019-05-21T05:11:07.174Z,3.77
2019-05-21T05:12:12.609Z,4.08
2019-05-21T05:13:17.670Z,4.20
2019-05-21T05:14:22.925Z,3.92
2019-05-21T05:15:28.641Z,3.85
2019-05-21T05:16:34.005Z,3.90
2019-05-21T05:17:38.943Z,4.17
2019-05-21T05:18:43.915Z,4.10
2019-05-21T05:19:48.760Z,4.28
2019-05-21T05:20:54.081Z,3.85
2019-05-21T05:21:58.809Z,3.67
2019-05-21T05:23:04.181Z,3.80
2019-05-21T05:24:09.037Z,3.77
2019-05-21T05:25:14.684Z,4.00
2019-05-21T05:26:19.581Z,4.20
2019-05-21T05:27:25.005Z,4.47
2019-05-21T05:28:29.657Z,4.20
2019-05-21T05:29:35.068Z,4.00
2019-05-21T05:30:39.896Z,4.50
2019-05-21T05:31:45.302Z,4.10
2019-05-21T05:32:50.197Z,3.92
2019-05-21T05:33:55.648Z,3.75
2019-05-21T05:35:00.393Z,3.60
2019-05-21T05:36:05.719Z,3.35
2019-05-21T05:37:10.436Z,4.15
2019-05-21T05:38:15.932Z,3.80
2019-05-21T05:39:20.754Z,4.25
2019-05-21T05:40:26.217Z,3.72
2019-05-21T05:41:31.217Z,3.62
2019-05-21T05:42:36.843Z,4.05
2019-05-21T05:43:41.558Z,4.20
2019-05-21T05:44:47.034Z,4.28
2019-05-21T05:45:51.985Z,3.62
2019-05-21T05:46:57.650Z,3.83
2019-05-21T05:48:02.221Z,3.80
2019-05-21T05:49:13.098Z,3.60
2019-05-21T05:50:19.562Z,3.70
2019-05-21T05:51:25.112Z,3.90
2019-05-21T05:52:29.898Z,3.80
2019-05-21T05:53:36.704Z,3.90
2019-05-21T05:54:41.716Z,3.55
2019-05-21T05:55:47.022Z,4.55
2019-05-21T05:56:51.955Z,3.87
2019-05-21T05:57:57.475Z,3.62
2019-05-21T05:59:02.311Z,3.40
2019-05-21T06:00:08.183Z,3.70
2019-05-21T06:01:13.028Z,3.52
2019-05-21T06:02:18.488Z,3.80
2019-05-21T06:03:23.242Z,3.77
2019-05-21T06:04:30.588Z,3.77
2019-05-21T06:05:35.292Z,4.00
2019-05-21T06:06:40.609Z,3.87
2019-05-21T06:07:58.664Z,3.83
2019-05-21T06:08:52.463Z,3.90
2019-05-21T06:09:57.330Z,3.67
2019-05-21T06:11:02.698Z,3.67
2019-05-21T06:12:07.494Z,3.62
2019-05-21T06:13:12.838Z,4.22
2019-05-21T06:14:17.552Z,4.10
2019-05-21T06:15:22.856Z,3.80
2019-05-21T06:16:27.522Z,4.00
2019-05-21T06:17:32.911Z,4.00
2019-05-21T06:18:37.668Z,4.35
2019-05-21T06:19:43.059Z,4.00
2019-05-21T06:20:47.875Z,4.20
2019-05-21T06:21:53.193Z,3.85
2019-05-21T06:22:58.037Z,4.83
2019-05-21T06:24:03.491Z,4.55
2019-05-21T06:25:09.595Z,4.05
2019-05-21T06:26:15.041Z,4.58
2019-05-21T06:27:19.843Z,4.40
2019-05-21T06:28:25.331Z,4.30
2019-05-21T06:29:30.002Z,3.90
2019-05-21T06:30:35.371Z,3.87
2019-05-21T06:31:40.125Z,4.17
2019-05-21T06:32:45.418Z,4.20
2019-05-21T06:33:50.266Z,4.08
2019-05-21T06:34:55.699Z,3.95
2019-05-21T06:36:00.798Z,4.35
2019-05-21T06:37:06.117Z,4.30
2019-05-21T06:38:17.605Z,4.03
2019-05-21T06:39:18.084Z,3.92
2019-05-21T06:40:22.801Z,3.83
2019-05-21T06:41:28.167Z,3.77
2019-05-21T06:42:32.885Z,4.05
2019-05-21T06:43:38.013Z,4.03
2019-05-21T06:44:42.943Z,3.90
2019-05-21T06:45:48.209Z,4.15
2019-05-21T06:46:53.090Z,4.25
2019-05-21T06:47:58.416Z,4.42
2019-05-21T06:49:03.259Z,4.42
2019-05-21T06:50:08.904Z,4.03
2019-05-21T06:51:13.614Z,4.17
2019-05-21T06:52:19.011Z,4.20
2019-05-21T06:53:23.912Z,4.20
2019-05-21T06:54:29.161Z,3.95
2019-05-21T06:55:33.606Z,3.90
2019-05-21T06:56:38.915Z,4.42
2019-05-21T06:57:43.541Z,3.60
2019-05-21T06:58:49.055Z,4.28
2019-05-21T06:59:53.793Z,4.12
2019-05-21T07:00:59.055Z,3.80
2019-05-21T07:02:04.348Z,4.20
2019-05-21T07:03:09.737Z,4.37
2019-05-21T07:04:14.597Z,4.20
2019-05-21T07:05:19.779Z,3.80
2019-05-21T07:06:24.562Z,4.00
2019-05-21T07:07:29.756Z,4.03
2019-05-21T07:08:35.323Z,3.80
2019-05-21T07:09:40.852Z,4.05
2019-05-21T07:10:45.596Z,4.20
2019-05-21T07:11:50.734Z,4.33
2019-05-21T07:12:55.471Z,3.90
2019-05-21T07:14:00.933Z,4.03
2019-05-21T07:15:06.101Z,4.15
2019-05-21T07:16:11.493Z,4.00
2019-05-21T07:17:16.303Z,4.28
2019-05-21T07:18:21.657Z,4.10
2019-05-21T07:19:26.505Z,4.17
2019-05-21T07:20:31.910Z,4.47
2019-05-21T07:21:36.821Z,4.12
2019-05-21T07:22:42.259Z,4.20
2019-05-21T07:23:47.196Z,3.87
2019-05-21T07:24:52.274Z,3.87
2019-05-21T07:25:57.264Z,3.90
2019-05-21T07:27:02.746Z,3.58
2019-05-21T07:28:07.630Z,4.40
2019-05-21T07:29:12.731Z,3.60
2019-05-21T07:30:18.254Z,3.87
2019-05-21T07:31:23.700Z,4.22
2019-05-21T07:32:28.617Z,3.60
2019-05-21T07:33:33.918Z,3.92
2019-05-21T07:34:38.763Z,4.10
2019-05-21T07:35:44.153Z,4.25
2019-05-21T07:36:49.114Z,3.80
2019-05-21T07:37:54.669Z,4.30
2019-05-21T07:38:59.459Z,4.15
2019-05-21T07:40:05.451Z,4.10
2019-05-21T07:41:10.263Z,4.05
2019-05-21T07:42:15.731Z,4.45
2019-05-21T07:43:20.529Z,3.70
2019-05-21T07:44:25.859Z,4.00
2019-05-21T07:45:30.314Z,3.98
2019-05-21T07:46:39.265Z,4.00
2019-05-21T07:47:42.250Z,4.42
2019-05-21T07:48:47.492Z,3.80
2019-05-21T07:49:52.339Z,3.75
2019-05-21T07:50:57.834Z,3.92
2019-05-21T07:52:02.695Z,4.10
2019-05-21T07:53:08.165Z,3.95
2019-05-21T07:54:13.005Z,3.95
2019-05-21T07:55:18.305Z,3.67
2019-05-21T07:56:23.190Z,3.80
2019-05-21T07:57:28.521Z,4.00
2019-05-21T07:58:33.294Z,3.80
2019-05-21T07:59:38.729Z,3.80
2019-05-21T08:00:43.605Z,4.12
2019-05-21T08:01:48.690Z,4.17
2019-05-21T08:02:53.629Z,3.98
2019-05-21T08:03:59.018Z,4.00
2019-05-21T08:05:04.045Z,3.95
2019-05-21T08:06:09.425Z,4.10
2019-05-21T08:07:14.352Z,4.08
2019-05-21T08:08:19.753Z,3.80
2019-05-21T08:09:24.465Z,3.75
2019-05-21T08:10:29.864Z,3.70
2019-05-21T08:11:34.709Z,3.92
2019-05-21T08:12:40.253Z,3.42
2019-05-21T08:13:45.137Z,3.80
2019-05-21T08:14:50.514Z,3.40
2019-05-21T08:15:55.360Z,3.70
2019-05-21T08:17:00.711Z,3.95
2019-05-21T08:18:05.580Z,4.20
2019-05-21T08:19:10.586Z,3.60
2019-05-21T08:20:16.419Z,3.77
2019-05-21T08:21:21.883Z,3.83
2019-05-21T08:22:26.844Z,3.80
2019-05-21T08:23:32.380Z,3.80
2019-05-21T08:24:37.238Z,3.98
2019-05-21T08:25:42.869Z,3.65
2019-05-21T08:26:47.641Z,3.83
2019-05-21T08:27:53.142Z,3.70
2019-05-21T08:28:57.982Z,3.47
2019-05-21T08:30:03.470Z,3.52
2019-05-21T08:31:08.309Z,3.98
2019-05-21T08:32:13.692Z,3.62
2019-05-21T08:33:18.502Z,3.30
2019-05-21T08:34:23.866Z,3.70
2019-05-21T08:35:28.569Z,3.62
2019-05-21T08:36:33.679Z,3.50
2019-05-21T08:37:38.577Z,3.62
2019-05-21T08:38:43.935Z,3.70
2019-05-21T08:39:48.829Z,3.52
2019-05-21T08:40:54.264Z,4.00
2019-05-21T08:41:59.017Z,3.55
2019-05-21T08:43:04.402Z,3.50
2019-05-21T08:44:09.235Z,3.60
2019-05-21T08:45:14.916Z,3.60
2019-05-21T08:46:19.831Z,3.40
2019-05-21T08:47:25.149Z,3.80
2019-05-21T08:48:29.932Z,3.75
2019-05-21T08:49:35.307Z,3.58
2019-05-21T08:50:40.328Z,3.80
2019-05-21T08:51:45.416Z,3.98
2019-05-21T08:52:50.192Z,3.50
2019-05-21T08:53:55.610Z,3.67
2019-05-21T08:55:00.451Z,3.62
2019-05-21T08:56:05.891Z,3.55
2019-05-21T08:57:10.822Z,3.85
2019-05-21T08:58:16.243Z,3.70
2019-05-21T08:59:21.104Z,3.50
2019-05-21T09:00:26.910Z,3.37
2019-05-21T09:01:31.441Z,3.25
2019-05-21T09:02:36.820Z,3.33
2019-05-21T09:03:41.483Z,3.20
2019-05-21T09:04:46.955Z,3.30
2019-05-21T09:05:51.850Z,3.02
2019-05-21T09:06:57.161Z,3.20
2019-05-21T09:08:01.869Z,2.98
2019-05-21T09:09:07.840Z,3.15
2019-05-21T09:10:13.717Z,3.35
2019-05-21T09:11:19.044Z,3.37
2019-05-21T09:12:23.909Z,3.42
2019-05-21T09:13:29.322Z,3.20
2019-05-21T09:14:34.220Z,3.40
2019-05-21T09:15:39.620Z,3.42
2019-05-21T09:16:44.517Z,3.22
2019-05-21T09:17:49.972Z,3.30
2019-05-21T09:18:54.824Z,3.37
2019-05-21T09:20:00.340Z,3.33
2019-05-21T09:21:05.294Z,3.00
2019-05-21T09:22:10.675Z,3.60
2019-05-21T09:23:15.506Z,3.20
2019-05-21T09:24:20.893Z,3.62
2019-05-21T09:25:25.794Z,3.58
2019-05-21T09:26:31.120Z,3.60
2019-05-21T09:27:36.128Z,3.52
2019-05-21T09:28:41.461Z,3.27
2019-05-21T09:29:46.272Z,3.42
2019-05-21T09:30:51.646Z,3.25
2019-05-21T09:31:56.590Z,3.47
2019-05-21T09:33:01.977Z,3.33
2019-05-21T09:34:06.850Z,3.27
2019-05-21T09:35:12.187Z,3.30
2019-05-21T09:36:17.071Z,3.37
2019-05-21T09:37:22.324Z,3.62
2019-05-21T09:38:27.240Z,3.47
2019-05-21T09:39:32.722Z,3.65
2019-05-21T09:40:37.590Z,3.12
2019-05-21T09:41:42.606Z,3.40
2019-05-21T09:42:47.413Z,3.45
2019-05-21T09:43:52.809Z,3.12
2019-05-21T09:44:57.712Z,3.22
2019-05-21T09:46:03.066Z,3.17
2019-05-21T09:47:07.884Z,3.02
2019-05-21T09:48:13.354Z,3.47
2019-05-21T09:49:18.150Z,3.37
2019-05-21T09:50:23.942Z,3.30
2019-05-21T09:51:28.640Z,3.27
2019-05-21T09:52:34.026Z,3.22
2019-05-21T09:53:38.975Z,3.30
2019-05-21T09:54:44.284Z,3.40
2019-05-21T09:55:49.140Z,3.55
2019-05-21T09:56:54.515Z,3.40
2019-05-21T09:58:21.103Z,3.50
2019-05-21T09:59:34.073Z,3.62
2019-05-21T10:01:16.113Z,3.22
2019-05-21T10:02:23.892Z,3.40
2019-05-21T10:03:30.834Z,3.50
2019-05-21T10:04:35.664Z,3.25
2019-05-21T10:05:41.242Z,3.33
2019-05-21T10:06:45.830Z,3.50
2019-05-21T10:07:51.273Z,3.60
2019-05-21T10:08:56.070Z,3.30
2019-05-21T10:10:01.509Z,3.22
2019-05-21T10:11:06.434Z,3.58
2019-05-21T10:12:12.096Z,3.33
2019-05-21T10:13:16.811Z,3.22
2019-05-21T10:14:22.218Z,3.30
2019-05-21T10:15:27.059Z,3.35
2019-05-21T10:16:32.512Z,3.55
2019-05-21T10:17:37.339Z,3.70
2019-05-21T10:18:42.680Z,3.12
2019-05-21T10:19:47.407Z,3.55
2019-05-21T10:20:52.979Z,3.25
2019-05-21T10:21:57.903Z,3.33
2019-05-21T10:23:03.273Z,3.15
2019-05-21T10:24:08.060Z,3.15
2019-05-21T10:25:15.897Z,3.00
2019-05-21T10:26:20.209Z,3.52
2019-05-21T10:27:25.613Z,3.33
2019-05-21T10:28:30.418Z,3.42
2019-05-21T10:29:35.834Z,3.67
2019-05-21T10:30:40.307Z,3.22
2019-05-21T10:31:45.643Z,3.40
2019-05-21T10:32:50.811Z,3.40
2019-05-21T10:33:56.175Z,3.20
2019-05-21T10:35:01.020Z,3.30
2019-05-21T10:36:06.521Z,3.77
2019-05-21T10:37:11.333Z,3.50
2019-05-21T10:38:16.465Z,3.30
2019-05-21T10:39:21.356Z,3.20
2019-05-21T10:40:26.742Z,2.87
2019-05-21T10:41:31.688Z,3.10
2019-05-21T10:42:36.917Z,3.33
2019-05-21T10:43:41.755Z,3.27
2019-05-21T10:44:47.384Z,3.40
2019-05-21T10:45:52.173Z,3.60
2019-05-21T10:46:57.313Z,3.20
2019-05-21T10:48:02.107Z,3.12
2019-05-21T10:49:07.764Z,3.40
2019-05-21T10:50:12.768Z,3.42
2019-05-21T10:51:18.190Z,3.30
2019-05-21T10:52:23.038Z,3.30
2019-05-21T10:53:28.605Z,3.70
2019-05-21T10:54:33.432Z,3.20
2019-05-21T10:55:38.853Z,3.50
2019-05-21T10:56:47.937Z,3.17
2019-05-21T10:57:50.554Z,3.45
2019-05-21T10:58:55.022Z,3.40
2019-05-21T11:00:00.410Z,3.45
2019-05-21T11:01:15.604Z,3.35
2019-05-21T11:02:32.833Z,3.52
2019-05-21T11:03:55.269Z,3.30
2019-05-21T11:05:07.063Z,3.50
2019-05-21T11:06:12.403Z,3.42
2019-05-21T11:07:18.445Z,3.33
2019-05-21T11:08:25.017Z,3.25
2019-05-21T11:09:30.131Z,3.47
2019-05-21T11:10:35.589Z,3.37
2019-05-21T11:11:40.420Z,3.37
2019-05-21T11:12:45.856Z,3.52
2019-05-21T11:13:50.706Z,3.30
2019-05-21T11:14:56.193Z,3.27
2019-05-21T11:16:01.026Z,3.70
2019-05-21T11:17:08.437Z,3.40
2019-05-21T11:18:13.390Z,3.20
2019-05-21T11:19:18.579Z,3.55
2019-05-21T11:20:23.339Z,3.60
2019-05-21T11:21:28.587Z,3.45
2019-05-21T11:22:33.363Z,3.40
2019-05-21T11:23:38.572Z,3.50
2019-05-21T11:24:43.396Z,3.92
2019-05-21T11:25:48.745Z,3.25
2019-05-21T11:26:53.635Z,3.60
2019-05-21T11:27:59.006Z,3.75
2019-05-21T11:29:03.872Z,3.60
2019-05-21T11:30:10.868Z,3.27
2019-05-21T11:31:15.691Z,3.25
2019-05-21T11:32:21.170Z,3.95
2019-05-21T11:33:26.048Z,3.40
2019-05-21T11:34:31.545Z,3.45
2019-05-21T11:35:36.530Z,3.25
2019-05-21T11:36:41.830Z,3.50
2019-05-21T11:37:48.043Z,3.35
2019-05-21T11:38:53.469Z,3.33
2019-05-21T11:39:58.419Z,3.27
2019-05-21T11:41:03.902Z,3.60
2019-05-21T11:42:08.768Z,3.52
2019-05-21T11:43:14.207Z,3.50
2019-05-21T11:44:18.882Z,3.50
2019-05-21T11:45:32.409Z,3.50
2019-05-21T11:46:30.947Z,3.30
2019-05-21T11:47:36.345Z,3.70
2019-05-21T11:48:41.079Z,3.25
2019-05-21T11:49:46.673Z,3.60
2019-05-21T11:50:51.434Z,3.55
2019-05-21T11:51:56.618Z,3.67
2019-05-21T11:53:01.362Z,3.22
2019-05-21T11:54:06.715Z,3.65
2019-05-21T11:55:11.676Z,3.72
2019-05-21T11:56:16.720Z,3.33
2019-05-21T11:57:21.642Z,3.33
2019-05-21T11:58:27.089Z,3.45
2019-05-21T11:59:31.904Z,3.58
2019-05-21T12:00:37.258Z,3.70
2019-05-21T12:01:42.325Z,3.72
2019-05-21T12:02:47.519Z,3.47
2019-05-21T12:03:52.281Z,3.12
2019-05-21T12:04:57.629Z,3.55
2019-05-21T12:06:02.092Z,3.62
2019-05-21T12:07:07.486Z,3.27
2019-05-21T12:08:12.216Z,3.15
2019-05-21T12:09:17.618Z,3.22
2019-05-21T12:10:22.556Z,3.42
2019-05-21T12:11:28.005Z,3.17
2019-05-21T12:12:32.958Z,3.12
2019-05-21T12:13:38.190Z,3.30
2019-05-21T12:14:43.002Z,3.55
2019-05-21T12:15:48.337Z,3.47
2019-05-21T12:16:53.248Z,3.40
2019-05-21T12:17:58.682Z,3.45
2019-05-21T12:19:07.568Z,3.40
2019-05-21T12:20:11.557Z,3.30
2019-05-21T12:21:16.507Z,3.12
2019-05-21T12:22:21.836Z,3.55
2019-05-21T12:23:26.799Z,3.50
2019-05-21T12:24:32.007Z,3.37
2019-05-21T12:25:36.888Z,3.10
2019-05-21T12:26:42.207Z,3.60
2019-05-21T12:27:47.082Z,3.33
2019-05-21T12:28:52.112Z,3.27
2019-05-21T12:29:56.974Z,3.33
2019-05-21T12:31:02.397Z,3.27
2019-05-21T12:32:07.248Z,3.62
2019-05-21T12:33:12.749Z,3.08
2019-05-21T12:34:17.483Z,3.58
2019-05-21T12:35:22.787Z,3.40
2019-05-21T12:36:27.818Z,3.30
2019-05-21T12:37:33.265Z,3.27
2019-05-21T12:38:38.115Z,3.47
2019-05-21T12:39:43.580Z,3.30
2019-05-21T12:40:48.577Z,3.35
2019-05-21T12:41:54.032Z,3.10
2019-05-21T12:42:58.920Z,2.90
2019-05-21T12:44:04.351Z,3.35
2019-05-21T12:45:08.946Z,3.30
2019-05-21T12:46:14.335Z,3.40
2019-05-21T12:47:19.152Z,3.20
2019-05-21T12:48:24.497Z,3.52
2019-05-21T12:49:29.380Z,3.60
2019-05-21T12:50:34.693Z,3.33
2019-05-21T12:51:39.623Z,3.55
2019-05-21T12:52:44.973Z,3.47
2019-05-21T12:53:49.779Z,3.35
2019-05-21T12:54:55.180Z,3.42
2019-05-21T12:56:00.095Z,3.30
2019-05-21T12:57:05.455Z,3.22
2019-05-21T12:58:10.359Z,3.02
2019-05-21T12:59:15.795Z,3.00
2019-05-21T13:00:20.726Z,3.65
2019-05-21T13:01:26.019Z,3.27
2019-05-21T13:02:30.507Z,3.30
2019-05-21T13:03:35.892Z,3.47
2019-05-21T13:04:40.667Z,3.22
2019-05-21T13:05:46.087Z,3.58
2019-05-21T13:06:50.851Z,3.47
2019-05-21T13:07:56.273Z,3.50
2019-05-21T13:09:01.356Z,3.50
2019-05-21T13:10:07.154Z,3.35
2019-05-21T13:11:12.015Z,3.50
2019-05-21T13:12:17.426Z,3.70
2019-05-21T13:13:22.246Z,3.20
2019-05-21T13:14:27.564Z,3.35
2019-05-21T13:15:32.456Z,3.22
2019-05-21T13:16:37.889Z,3.58
2019-05-21T13:17:42.802Z,3.47
2019-05-21T13:18:48.012Z,3.50
2019-05-21T13:19:52.849Z,3.70
2019-05-21T13:20:58.366Z,3.75
2019-05-21T13:22:03.208Z,3.58
2019-05-21T13:23:08.620Z,3.50
2019-05-21T13:24:13.697Z,3.30
2019-05-21T13:25:19.161Z,3.60
2019-05-21T13:26:23.992Z,3.30
2019-05-21T13:27:29.428Z,3.10
2019-05-21T13:28:34.340Z,3.40
2019-05-21T13:29:39.902Z,3.33
2019-05-21T13:30:44.712Z,3.50
2019-05-21T13:31:50.204Z,3.60
2019-05-21T13:32:55.659Z,3.20
2019-05-21T13:34:01.086Z,3.40
2019-05-21T13:35:07.875Z,3.27
2019-05-21T13:36:13.418Z,3.25
2019-05-21T13:37:18.212Z,3.25
2019-05-21T13:38:23.644Z,3.15
2019-05-21T13:39:28.557Z,3.20
2019-05-21T13:40:34.230Z,3.67
2019-05-21T13:41:38.974Z,3.40
2019-05-21T13:42:44.392Z,3.50
2019-05-21T13:43:49.230Z,3.22
2019-05-21T13:44:54.597Z,3.35
2019-05-21T13:45:59.525Z,3.35
2019-05-21T13:47:04.874Z,3.17
2019-05-21T13:48:09.751Z,3.30
2019-05-21T13:49:15.199Z,3.35
2019-05-21T13:50:20.057Z,3.22
2019-05-21T13:51:25.318Z,3.40
2019-05-21T13:52:30.283Z,3.40
2019-05-21T13:53:36.093Z,3.30
2019-05-21T13:54:41.001Z,3.45
2019-05-21T13:55:46.770Z,3.08
2019-05-21T13:56:51.696Z,3.30
2019-05-21T13:57:57.217Z,3.22
2019-05-21T13:59:02.043Z,3.47
2019-05-21T14:00:10.653Z,3.60
2019-05-21T14:01:16.403Z,3.45
2019-05-21T14:02:22.099Z,3.33
2019-05-21T14:03:26.968Z,3.37
2019-05-21T14:04:32.473Z,3.30
2019-05-21T14:05:38.158Z,3.30
2019-05-21T14:06:43.564Z,3.55
2019-05-21T14:07:48.392Z,3.30
2019-05-21T14:08:53.884Z,3.40
2019-05-21T14:10:14.443Z,3.40
2019-05-21T14:11:05.864Z,3.50
2019-05-21T14:12:11.043Z,3.20
2019-05-21T14:13:16.538Z,3.60
2019-05-21T14:14:21.534Z,3.17
2019-05-21T14:15:27.148Z,3.10
2019-05-21T14:16:34.767Z,3.45
2019-05-21T14:17:39.134Z,3.50
2019-05-21T14:18:43.930Z,3.30
2019-05-21T14:19:49.192Z,2.98
2019-05-21T14:20:55.558Z,3.60
2019-05-21T14:22:00.769Z,3.50
2019-05-21T14:23:05.917Z,3.22
2019-05-21T14:24:11.373Z,3.40
2019-05-21T14:25:16.392Z,3.67
2019-05-21T14:26:21.838Z,3.27
2019-05-21T14:27:43.123Z,3.17
2019-05-21T14:28:34.797Z,3.45
2019-05-21T14:29:39.716Z,3.30
2019-05-21T14:30:45.073Z,3.10
2019-05-21T14:31:49.838Z,3.00
2019-05-21T14:32:55.326Z,3.40
2019-05-21T14:34:00.313Z,3.25
2019-05-21T14:35:06.203Z,3.10
2019-05-21T14:36:11.084Z,3.40